createdAt,value
2017-01-17T00:00:16.648Z,0
2017-01-17T00:01:17.019Z,0
2017-01-17T00:02:17.697Z,0
2017-01-17T00:03:16.979Z,0
2017-01-17T00:04:16.624Z,0
2017-01-17T00:05:16.040Z,0
2017-01-17T00:06:16.540Z,0
2017-01-17T00:07:17.094Z,0
2017-01-17T00:08:16.509Z,0
2017-01-17T00:09:16.173Z,0
2017-01-17T00:10:15.379Z,0
2017-01-17T00:11:16.728Z,0
2017-01-17T00:12:16.709Z,0
2017-01-17T00:13:16.689Z,0
2017-01-17T00:14:15.998Z,0
2017-01-17T00:15:15.663Z,0
2017-01-17T00:16:15.879Z,0
2017-01-17T00:17:16.174Z,0
2017-01-17T00:18:15.093Z,0
2017-01-17T00:19:16.876Z,0
2017-01-17T00:20:15.742Z,0
2017-01-17T00:21:15.926Z,0
2017-01-17T00:22:15.769Z,0
2017-01-17T00:23:16.111Z,0
2017-01-17T00:24:16.868Z,0
2017-01-17T00:25:16.689Z,0
2017-01-17T00:26:16.650Z,0
2017-01-17T00:27:15.242Z,0
2017-01-17T00:28:15.935Z,0
2017-01-17T00:29:16.583Z,0
2017-01-17T00:30:16.151Z,0
2017-01-17T00:31:16.211Z,0
2017-01-17T00:32:16.560Z,0
2017-01-17T00:33:16.099Z,0
2017-01-17T00:34:16.114Z,0
2017-01-17T00:35:16.394Z,0
2017-01-17T00:36:16.514Z,0
2017-01-17T00:37:15.247Z,0
2017-01-17T00:38:16.403Z,0
2017-01-17T00:39:15.295Z,0
2017-01-17T00:40:15.931Z,0
2017-01-17T00:41:14.907Z,0
2017-01-17T00:42:15.403Z,0
2017-01-17T00:43:15.885Z,0
2017-01-17T00:44:15.352Z,0
2017-01-17T00:45:15.140Z,0
2017-01-17T00:46:16.109Z,0
2017-01-17T00:47:16.070Z,0
2017-01-17T00:48:15.049Z,0
2017-01-17T00:49:15.659Z,0
2017-01-17T00:50:15.318Z,0
2017-01-17T00:51:16.268Z,0
2017-01-17T00:52:15.216Z,0
2017-01-17T00:53:15.157Z,0
2017-01-17T00:54:14.469Z,0
2017-01-17T00:55:14.239Z,0
2017-01-17T00:56:15.152Z,0
2017-01-17T00:57:15.332Z,0
2017-01-17T00:58:15.322Z,0
2017-01-17T00:59:14.982Z,0
2017-01-17T01:00:15.352Z,0
2017-01-17T01:01:15.660Z,0
2017-01-17T01:02:15.968Z,0
2017-01-17T01:03:15.964Z,0
2017-01-17T01:04:14.929Z,0
2017-01-17T01:05:13.878Z,0
2017-01-17T01:06:14.858Z,0
2017-01-17T01:07:15.041Z,0
2017-01-17T01:08:15.147Z,0
2017-01-17T01:09:14.436Z,0
2017-01-17T01:10:15.410Z,0
2017-01-17T01:11:14.790Z,0
2017-01-17T01:12:13.944Z,0
2017-01-17T01:13:15.533Z,0
2017-01-17T01:14:14.703Z,0
2017-01-17T01:15:14.515Z,0
2017-01-17T01:16:14.922Z,0
2017-01-17T01:17:15.641Z,0
2017-01-17T01:18:15.395Z,0
2017-01-17T01:19:14.845Z,0
2017-01-17T01:20:15.139Z,0
2017-01-17T01:21:15.089Z,0
2017-01-17T01:22:15.412Z,0
2017-01-17T01:23:14.728Z,0
2017-01-17T01:24:15.187Z,0
2017-01-17T01:25:13.598Z,0
2017-01-17T01:26:13.556Z,0
2017-01-17T01:27:13.964Z,0
2017-01-17T01:28:14.756Z,0
2017-01-17T01:29:14.550Z,0
2017-01-17T01:30:13.854Z,0
2017-01-17T01:31:14.437Z,0
2017-01-17T01:32:14.438Z,0
2017-01-17T01:33:13.475Z,0
2017-01-17T01:34:14.392Z,0
2017-01-17T01:35:13.771Z,0
2017-01-17T01:36:14.999Z,0
2017-01-17T01:37:13.383Z,0
2017-01-17T01:38:13.949Z,0
2017-01-17T01:39:14.908Z,0
2017-01-17T01:40:13.927Z,0
2017-01-17T01:41:14.327Z,0
2017-01-17T01:42:14.028Z,0
2017-01-17T01:43:14.807Z,0
2017-01-17T01:44:13.383Z,0
2017-01-17T01:45:13.505Z,0
2017-01-17T01:46:14.714Z,0
2017-01-17T01:47:14.341Z,0
2017-01-17T01:48:14.327Z,0
2017-01-17T01:49:13.352Z,0
2017-01-17T01:50:13.633Z,0
2017-01-17T01:51:13.602Z,0
2017-01-17T01:52:14.560Z,0
2017-01-17T01:53:13.830Z,0
2017-01-17T01:54:13.833Z,0
2017-01-17T01:55:13.519Z,0
2017-01-17T01:56:13.688Z,0
2017-01-17T01:57:13.765Z,0
2017-01-17T01:58:13.077Z,0
2017-01-17T01:59:12.647Z,0
2017-01-17T02:00:13.985Z,0
2017-01-17T02:01:12.878Z,0
2017-01-17T02:02:13.015Z,0
2017-01-17T02:03:12.848Z,0
2017-01-17T02:04:13.851Z,0
2017-01-17T02:05:12.790Z,0
2017-01-17T02:06:13.413Z,0
2017-01-17T02:07:12.415Z,0
2017-01-17T02:08:13.339Z,0
2017-01-17T02:09:14.081Z,0
2017-01-17T02:10:13.565Z,0
2017-01-17T02:11:12.791Z,0
2017-01-17T02:12:13.013Z,0
2017-01-17T02:13:13.688Z,0
2017-01-17T02:14:12.874Z,0
2017-01-17T02:15:12.507Z,0
2017-01-17T02:16:12.496Z,0
2017-01-17T02:17:12.775Z,0
2017-01-17T02:18:12.698Z,0
2017-01-17T02:19:12.365Z,0
2017-01-17T02:20:12.514Z,0
2017-01-17T02:21:12.574Z,0
2017-01-17T02:22:11.977Z,0
2017-01-17T02:23:12.704Z,0
2017-01-17T02:24:13.331Z,0
2017-01-17T02:25:12.347Z,0
2017-01-17T02:26:12.301Z,0
2017-01-17T02:27:12.481Z,0
2017-01-17T02:28:12.534Z,0
2017-01-17T02:29:13.150Z,0
2017-01-17T02:30:13.188Z,0
2017-01-17T02:31:12.796Z,0
2017-01-17T02:32:12.753Z,0
2017-01-17T02:33:12.726Z,0
2017-01-17T02:34:12.006Z,0
2017-01-17T02:35:11.710Z,0
2017-01-17T02:36:12.166Z,0
2017-01-17T02:37:13.144Z,0
2017-01-17T02:38:12.225Z,0
2017-01-17T02:39:11.910Z,0
2017-01-17T02:40:12.205Z,0
2017-01-17T02:41:11.353Z,0
2017-01-17T02:42:11.753Z,0
2017-01-17T02:43:11.549Z,0
2017-01-17T02:44:12.302Z,0
2017-01-17T02:45:12.298Z,0
2017-01-17T02:46:12.011Z,0
2017-01-17T02:47:11.610Z,0
2017-01-17T02:48:11.629Z,0
2017-01-17T02:49:12.955Z,0
2017-01-17T02:50:13.316Z,0
2017-01-17T02:51:11.878Z,0
2017-01-17T02:52:11.571Z,0
2017-01-17T02:53:11.298Z,0
2017-01-17T02:54:11.734Z,0
2017-01-17T02:55:12.116Z,0
2017-01-17T02:56:11.412Z,0
2017-01-17T02:57:10.742Z,0
2017-01-17T02:58:12.032Z,0
2017-01-17T02:59:12.344Z,0
2017-01-17T03:00:10.983Z,0
2017-01-17T03:01:11.617Z,0
2017-01-17T03:02:11.040Z,0
2017-01-17T03:03:11.872Z,0
2017-01-17T03:04:11.131Z,0
2017-01-17T03:05:11.723Z,0
2017-01-17T03:06:11.048Z,0
2017-01-17T03:07:11.464Z,0
2017-01-17T03:08:11.385Z,0
2017-01-17T03:09:10.810Z,0
2017-01-17T03:10:12.328Z,0
2017-01-17T03:11:12.473Z,0
2017-01-17T03:12:10.844Z,0
2017-01-17T03:13:10.938Z,0
2017-01-17T03:14:12.064Z,0
2017-01-17T03:15:10.775Z,0
2017-01-17T03:16:12.202Z,0
2017-01-17T03:17:12.144Z,0
2017-01-17T03:18:11.370Z,0
2017-01-17T03:19:10.683Z,0
2017-01-17T03:20:11.052Z,0
2017-01-17T03:21:10.731Z,0
2017-01-17T03:22:11.343Z,0
2017-01-17T03:23:10.990Z,0
2017-01-17T03:24:11.656Z,0
2017-01-17T03:25:10.799Z,0
2017-01-17T03:26:10.429Z,0
2017-01-17T03:27:10.893Z,0
2017-01-17T03:28:10.839Z,0
2017-01-17T03:29:10.517Z,0
2017-01-17T03:30:11.423Z,0
2017-01-17T03:31:10.851Z,0
2017-01-17T03:32:10.423Z,0
2017-01-17T03:33:11.027Z,0
2017-01-17T03:34:10.504Z,0
2017-01-17T03:35:11.304Z,0
2017-01-17T03:36:10.612Z,0
2017-01-17T03:37:11.100Z,0
2017-01-17T03:38:10.232Z,0
2017-01-17T03:39:11.167Z,0
2017-01-17T03:40:10.283Z,0
2017-01-17T03:41:10.812Z,0
2017-01-17T03:42:11.107Z,0
2017-01-17T03:43:10.380Z,0
2017-01-17T03:44:09.650Z,0
2017-01-17T03:45:10.737Z,0
2017-01-17T03:46:10.190Z,0
2017-01-17T03:47:09.988Z,0
2017-01-17T03:48:11.125Z,0
2017-01-17T03:49:09.906Z,0
2017-01-17T03:50:09.237Z,0
2017-01-17T03:51:09.778Z,0
2017-01-17T03:52:10.806Z,0
2017-01-17T03:53:10.795Z,0
2017-01-17T03:54:11.049Z,0
2017-01-17T03:55:09.595Z,0
2017-01-17T03:56:10.703Z,0
2017-01-17T03:57:09.894Z,0
2017-01-17T03:58:10.363Z,0
2017-01-17T03:59:09.872Z,0
2017-01-17T04:00:10.123Z,0
2017-01-17T04:01:09.891Z,0
2017-01-17T04:02:10.247Z,0
2017-01-17T04:03:09.505Z,0
2017-01-17T04:04:10.099Z,0
2017-01-17T04:05:10.158Z,0
2017-01-17T04:06:09.429Z,0
2017-01-17T04:07:09.824Z,0
2017-01-17T04:08:09.144Z,0
2017-01-17T04:09:10.444Z,0
2017-01-17T04:10:09.098Z,0
2017-01-17T04:11:09.607Z,0
2017-01-17T04:12:09.964Z,0
2017-01-17T04:13:09.760Z,0
2017-01-17T04:14:09.575Z,0
2017-01-17T04:15:10.070Z,0
2017-01-17T04:16:08.779Z,0
2017-01-17T04:17:09.753Z,0
2017-01-17T04:18:09.064Z,0
2017-01-17T04:19:09.292Z,0
2017-01-17T04:20:10.039Z,0
2017-01-17T04:21:08.380Z,0
2017-01-17T04:22:08.902Z,0
2017-01-17T04:23:08.843Z,0
2017-01-17T04:24:08.490Z,0
2017-01-17T04:25:09.084Z,0
2017-01-17T04:26:09.828Z,0
2017-01-17T04:27:09.169Z,0
2017-01-17T04:28:09.984Z,0
2017-01-17T04:29:08.045Z,0
2017-01-17T04:30:09.681Z,0
2017-01-17T04:31:08.646Z,0
2017-01-17T04:32:09.650Z,0
2017-01-17T04:33:08.905Z,0
2017-01-17T04:34:08.305Z,0
2017-01-17T04:35:09.236Z,0
2017-01-17T04:36:08.553Z,0
2017-01-17T04:37:08.467Z,0
2017-01-17T04:38:07.782Z,0
2017-01-17T04:39:09.633Z,0
2017-01-17T04:40:08.532Z,0
2017-01-17T04:41:08.387Z,0
2017-01-17T04:42:08.722Z,0
2017-01-17T04:43:08.760Z,0
2017-01-17T04:44:09.025Z,0
2017-01-17T04:45:08.939Z,0
2017-01-17T04:46:08.610Z,0
2017-01-17T04:47:08.886Z,0
2017-01-17T04:48:09.055Z,0
2017-01-17T04:49:08.107Z,0
2017-01-17T04:50:09.021Z,0
2017-01-17T04:51:08.584Z,0
2017-01-17T04:52:07.764Z,0
2017-01-17T04:53:07.794Z,0
2017-01-17T04:54:07.836Z,0
2017-01-17T04:55:08.723Z,0
2017-01-17T04:56:09.300Z,0
2017-01-17T04:57:08.730Z,0
2017-01-17T04:58:08.442Z,0
2017-01-17T04:59:08.051Z,0
2017-01-17T05:00:07.691Z,0
2017-01-17T05:01:07.790Z,0
2017-01-17T05:02:07.590Z,0
2017-01-17T05:03:08.549Z,0
2017-01-17T05:04:08.397Z,0
2017-01-17T05:05:08.439Z,0
2017-01-17T05:06:07.614Z,0
2017-01-17T05:07:08.870Z,0
2017-01-17T05:08:08.068Z,0
2017-01-17T05:09:08.596Z,0
2017-01-17T05:10:08.136Z,0
2017-01-17T05:11:07.128Z,0
2017-01-17T05:12:07.858Z,0
2017-01-17T05:13:07.258Z,0
2017-01-17T05:14:08.139Z,0
2017-01-17T05:15:08.011Z,0
2017-01-17T05:16:07.272Z,0
2017-01-17T05:17:07.615Z,0
2017-01-17T05:18:07.402Z,0
2017-01-17T05:19:07.969Z,0
2017-01-17T05:20:07.544Z,0
2017-01-17T05:21:07.597Z,0
2017-01-17T05:22:07.169Z,0
2017-01-17T05:23:08.510Z,0
2017-01-17T05:24:06.789Z,0
2017-01-17T05:25:06.375Z,0
2017-01-17T05:26:07.367Z,0
2017-01-17T05:27:06.762Z,0
2017-01-17T05:28:07.916Z,0
2017-01-17T05:29:08.002Z,0
2017-01-17T05:30:06.860Z,0
2017-01-17T05:31:07.225Z,0
2017-01-17T05:32:08.001Z,0
2017-01-17T05:33:06.595Z,0
2017-01-17T05:34:07.901Z,0
2017-01-17T05:35:08.173Z,0
2017-01-17T05:36:07.474Z,0
2017-01-17T05:37:07.310Z,0
2017-01-17T05:38:06.358Z,0
2017-01-17T05:39:06.741Z,0
2017-01-17T05:40:06.990Z,0
2017-01-17T05:41:07.069Z,0
2017-01-17T05:42:07.334Z,0
2017-01-17T05:43:06.995Z,0
2017-01-17T05:44:06.823Z,0
2017-01-17T05:45:07.738Z,0
2017-01-17T05:46:06.317Z,0
2017-01-17T05:47:07.627Z,0
2017-01-17T05:48:07.006Z,0
2017-01-17T05:49:06.383Z,0
2017-01-17T05:50:06.410Z,0
2017-01-17T05:51:06.244Z,0
2017-01-17T05:52:06.682Z,0
2017-01-17T05:53:07.632Z,0
2017-01-17T05:54:06.658Z,0
2017-01-17T05:55:07.122Z,0
2017-01-17T05:56:06.082Z,0
2017-01-17T05:57:06.219Z,0
2017-01-17T05:58:07.512Z,0
2017-01-17T05:59:06.170Z,0
2017-01-17T06:00:06.126Z,0
2017-01-17T06:01:06.100Z,0
2017-01-17T06:02:07.384Z,0
2017-01-17T06:03:06.365Z,0
2017-01-17T06:04:06.677Z,0
2017-01-17T06:05:06.979Z,0
2017-01-17T06:06:05.540Z,0
2017-01-17T06:07:06.622Z,0
2017-01-17T06:08:06.158Z,0
2017-01-17T06:09:06.523Z,0
2017-01-17T06:10:05.774Z,0
2017-01-17T06:11:06.431Z,0
2017-01-17T06:12:06.024Z,0
2017-01-17T06:13:05.659Z,0
2017-01-17T06:14:06.295Z,0
2017-01-17T06:15:06.351Z,0
2017-01-17T06:16:05.984Z,0
2017-01-17T06:17:06.160Z,0
2017-01-17T06:18:05.288Z,0
2017-01-17T06:19:06.224Z,0
2017-01-17T06:20:05.810Z,0
2017-01-17T06:21:05.618Z,0
2017-01-17T06:22:05.461Z,0
2017-01-17T06:23:06.086Z,0
2017-01-17T06:24:06.744Z,0
2017-01-17T06:25:05.415Z,0
2017-01-17T06:26:04.655Z,0
2017-01-17T06:27:05.015Z,0
2017-01-17T06:28:05.648Z,0
2017-01-17T06:29:05.593Z,0
2017-01-17T06:30:05.963Z,0
2017-01-17T06:31:06.202Z,0
2017-01-17T06:32:06.247Z,0
2017-01-17T06:33:06.149Z,0
2017-01-17T06:34:06.453Z,0
2017-01-17T06:35:05.161Z,0
2017-01-17T06:36:06.374Z,0
2017-01-17T06:37:06.018Z,0
2017-01-17T06:38:06.333Z,0
2017-01-17T06:39:04.772Z,0
2017-01-17T06:40:04.814Z,0
2017-01-17T06:41:06.008Z,0
2017-01-17T06:42:04.751Z,0
2017-01-17T06:43:05.723Z,0
2017-01-17T06:44:05.508Z,0
2017-01-17T06:45:05.810Z,0
2017-01-17T06:46:05.451Z,0
2017-01-17T06:47:04.350Z,0
2017-01-17T06:48:05.733Z,0
2017-01-17T06:49:05.423Z,0
2017-01-17T06:50:05.921Z,0
2017-01-17T06:51:05.631Z,0
2017-01-17T06:52:04.971Z,0
2017-01-17T06:53:05.616Z,0
2017-01-17T06:54:05.410Z,0
2017-01-17T06:55:04.830Z,0
2017-01-17T06:56:05.201Z,0
2017-01-17T06:57:04.738Z,4
2017-01-17T06:58:05.770Z,4
2017-01-17T06:59:04.738Z,0
2017-01-17T07:00:05.209Z,0
2017-01-17T07:01:04.677Z,0
2017-01-17T07:02:05.286Z,4
2017-01-17T07:03:04.789Z,4
2017-01-17T07:04:04.290Z,0
2017-01-17T07:05:05.244Z,4
2017-01-17T07:06:03.474Z,8
2017-01-17T07:07:04.850Z,4
2017-01-17T07:08:05.363Z,8
2017-01-17T07:09:05.085Z,4
2017-01-17T07:10:04.002Z,8
2017-01-17T07:11:04.745Z,8
2017-01-17T07:12:04.020Z,8
2017-01-17T07:13:05.320Z,12
2017-01-17T07:14:03.856Z,12
2017-01-17T07:15:04.954Z,12
2017-01-17T07:16:04.602Z,16
2017-01-17T07:17:05.208Z,16
2017-01-17T07:18:04.906Z,16
2017-01-17T07:19:03.415Z,20
2017-01-17T07:20:03.750Z,24
2017-01-17T07:21:04.788Z,28
2017-01-17T07:22:04.345Z,32
2017-01-17T07:23:04.394Z,36
2017-01-17T07:24:03.700Z,40
2017-01-17T07:25:04.636Z,44
2017-01-17T07:26:03.981Z,52
2017-01-17T07:27:03.602Z,60
2017-01-17T07:28:03.650Z,64
2017-01-17T07:29:04.369Z,68
2017-01-17T07:30:03.511Z,72
2017-01-17T07:31:04.061Z,76
2017-01-17T07:32:04.630Z,80
2017-01-17T07:33:03.346Z,84
2017-01-17T07:34:03.919Z,88
2017-01-17T07:35:04.695Z,92
2017-01-17T07:36:03.335Z,96
2017-01-17T07:37:02.906Z,100
2017-01-17T07:38:04.030Z,104
2017-01-17T07:39:03.916Z,112
2017-01-17T07:40:04.191Z,120
2017-01-17T07:41:03.846Z,128
2017-01-17T07:42:03.818Z,136
2017-01-17T07:43:03.648Z,144
2017-01-17T07:44:04.104Z,148
2017-01-17T07:45:03.402Z,152
2017-01-17T07:46:03.234Z,160
2017-01-17T07:47:04.193Z,172
2017-01-17T07:48:03.342Z,180
2017-01-17T07:49:03.617Z,184
2017-01-17T07:50:03.251Z,188
2017-01-17T07:51:03.090Z,192
2017-01-17T07:52:04.152Z,192
2017-01-17T07:53:03.189Z,200
2017-01-17T07:54:04.158Z,220
2017-01-17T07:55:03.106Z,232
2017-01-17T07:56:03.066Z,248
2017-01-17T07:57:03.056Z,248
2017-01-17T07:58:03.250Z,256
2017-01-17T07:59:02.374Z,256
2017-01-17T08:00:03.614Z,256
2017-01-17T08:01:03.195Z,260
2017-01-17T08:02:03.111Z,264
2017-01-17T08:03:02.150Z,280
2017-01-17T08:04:03.865Z,292
2017-01-17T08:05:03.477Z,304
2017-01-17T08:06:03.361Z,304
2017-01-17T08:07:02.707Z,308
2017-01-17T08:08:02.480Z,316
2017-01-17T08:09:02.706Z,320
2017-01-17T08:10:02.729Z,332
2017-01-17T08:11:02.975Z,352
2017-01-17T08:12:04.093Z,376
2017-01-17T08:13:04.036Z,404
2017-01-17T08:14:03.979Z,436
2017-01-17T08:15:02.984Z,440
2017-01-17T08:16:03.217Z,464
2017-01-17T08:17:03.706Z,496
2017-01-17T08:18:03.384Z,512
2017-01-17T08:19:04.826Z,516
2017-01-17T08:20:03.396Z,524
2017-01-17T08:21:02.752Z,544
2017-01-17T08:22:02.513Z,524
2017-01-17T08:23:03.008Z,504
2017-01-17T08:24:02.473Z,548
2017-01-17T08:25:02.364Z,568
2017-01-17T08:26:02.461Z,584
2017-01-17T08:27:02.739Z,596
2017-01-17T08:28:02.484Z,596
2017-01-17T08:29:01.755Z,620
2017-01-17T08:30:03.079Z,664
2017-01-17T08:31:01.683Z,680
2017-01-17T08:32:02.285Z,640
2017-01-17T08:33:01.276Z,632
2017-01-17T08:34:02.326Z,628
2017-01-17T08:35:01.870Z,624
2017-01-17T08:36:02.510Z,620
2017-01-17T08:37:02.445Z,640
2017-01-17T08:38:02.852Z,676
2017-01-17T08:39:02.485Z,724
2017-01-17T08:40:01.413Z,752
2017-01-17T08:41:01.983Z,736
2017-01-17T08:42:02.740Z,724
2017-01-17T08:43:01.407Z,724
2017-01-17T08:44:01.287Z,740
2017-01-17T08:45:01.913Z,756
2017-01-17T08:46:02.308Z,780
2017-01-17T08:47:01.958Z,832
2017-01-17T08:48:01.663Z,888
2017-01-17T08:49:02.250Z,892
2017-01-17T08:50:01.818Z,868
2017-01-17T08:51:01.744Z,868
2017-01-17T08:52:00.725Z,908
2017-01-17T08:53:02.104Z,968
2017-01-17T08:54:01.544Z,992
2017-01-17T08:55:01.314Z,952
2017-01-17T08:56:01.364Z,888
2017-01-17T08:57:01.657Z,848
2017-01-17T08:58:01.310Z,836
2017-01-17T08:59:00.861Z,820
2017-01-17T09:00:00.221Z,828
2017-01-17T09:01:01.885Z,892
2017-01-17T09:02:01.555Z,960
2017-01-17T09:03:00.869Z,948
2017-01-17T09:04:00.716Z,924
2017-01-17T09:05:00.965Z,880
2017-01-17T09:06:01.735Z,808
2017-01-17T09:07:00.537Z,764
2017-01-17T09:08:02.017Z,780
2017-01-17T09:09:00.577Z,784
2017-01-17T09:09:59.901Z,804
2017-01-17T09:11:01.222Z,840
2017-01-17T09:12:00.981Z,880
2017-01-17T09:13:01.838Z,896
2017-01-17T09:14:01.846Z,884
2017-01-17T09:15:01.000Z,928
2017-01-17T09:16:01.135Z,940
2017-01-17T09:17:00.291Z,916
2017-01-17T09:18:00.249Z,912
2017-01-17T09:19:00.688Z,920
2017-01-17T09:20:01.211Z,932
2017-01-17T09:21:00.667Z,976
2017-01-17T09:22:01.272Z,996
2017-01-17T09:23:00.912Z,976
2017-01-17T09:24:00.578Z,980
2017-01-17T09:25:01.049Z,964
2017-01-17T09:25:59.675Z,976
2017-01-17T09:27:01.473Z,1064
2017-01-17T09:27:59.690Z,1116
2017-01-17T09:29:00.034Z,1156
2017-01-17T09:30:01.045Z,1184
2017-01-17T09:31:00.714Z,1216
2017-01-17T09:32:00.352Z,1192
2017-01-17T09:32:59.629Z,1228
2017-01-17T09:33:59.763Z,1232
2017-01-17T09:34:59.910Z,1176
2017-01-17T09:36:00.582Z,1220
2017-01-17T09:37:00.420Z,1144
2017-01-17T09:38:00.815Z,1020
2017-01-17T09:39:00.387Z,1020
2017-01-17T09:40:00.436Z,1028
2017-01-17T09:41:00.329Z,1068
2017-01-17T09:42:00.694Z,1136
2017-01-17T09:43:00.466Z,1180
2017-01-17T09:44:00.276Z,1244
2017-01-17T09:45:00.255Z,1248
2017-01-17T09:46:00.275Z,1228
2017-01-17T09:46:59.076Z,1220
2017-01-17T09:48:00.008Z,1204
2017-01-17T09:49:00.177Z,1192
2017-01-17T09:50:00.192Z,1120
2017-01-17T09:51:00.000Z,1136
2017-01-17T09:52:00.080Z,1180
2017-01-17T09:53:00.439Z,1296
2017-01-17T09:53:59.374Z,1308
2017-01-17T09:54:59.621Z,1316
2017-01-17T09:56:00.329Z,1312
2017-01-17T09:56:59.208Z,1300
2017-01-17T09:57:59.827Z,1276
2017-01-17T09:58:59.323Z,1240
2017-01-17T09:59:59.757Z,1276
2017-01-17T10:00:59.832Z,1368
2017-01-17T10:02:00.426Z,1412
2017-01-17T10:02:59.500Z,1400
2017-01-17T10:03:59.342Z,1384
2017-01-17T10:04:59.464Z,1344
2017-01-17T10:06:00.051Z,1268
2017-01-17T10:07:00.229Z,1204
2017-01-17T10:07:59.646Z,1172
2017-01-17T10:08:59.357Z,1164
2017-01-17T10:09:58.922Z,1216
2017-01-17T10:11:00.093Z,1304
2017-01-17T10:11:59.850Z,1336
2017-01-17T10:12:59.020Z,1324
2017-01-17T10:13:58.709Z,1232
2017-01-17T10:14:58.815Z,1164
2017-01-17T10:15:58.600Z,1124
2017-01-17T10:16:59.144Z,1128
2017-01-17T10:17:59.017Z,1156
2017-01-17T10:18:59.276Z,1188
2017-01-17T10:19:59.934Z,1220
2017-01-17T10:20:59.595Z,1244
2017-01-17T10:21:59.906Z,1268
2017-01-17T10:22:59.841Z,1216
2017-01-17T10:23:58.860Z,1184
2017-01-17T10:24:58.814Z,1232
2017-01-17T10:25:59.118Z,1292
2017-01-17T10:26:59.115Z,1292
2017-01-17T10:27:59.001Z,1340
2017-01-17T10:28:59.025Z,1316
2017-01-17T10:29:59.203Z,1240
2017-01-17T10:30:59.716Z,1220
2017-01-17T10:31:58.320Z,1280
2017-01-17T10:32:58.779Z,1308
2017-01-17T10:33:59.283Z,1264
2017-01-17T10:34:58.445Z,1240
2017-01-17T10:35:58.805Z,1244
2017-01-17T10:36:58.828Z,1232
2017-01-17T10:37:58.827Z,1220
2017-01-17T10:38:58.688Z,1236
2017-01-17T10:39:57.656Z,1260
2017-01-17T10:40:58.114Z,1252
2017-01-17T10:41:57.858Z,1268
2017-01-17T10:42:58.631Z,1260
2017-01-17T10:43:58.994Z,1300
2017-01-17T10:44:58.450Z,1332
2017-01-17T10:45:59.145Z,1372
2017-01-17T10:46:58.531Z,1360
2017-01-17T10:47:58.533Z,1328
2017-01-17T10:48:58.472Z,1304
2017-01-17T10:49:59.185Z,1292
2017-01-17T10:50:58.922Z,1272
2017-01-17T10:51:58.230Z,1256
2017-01-17T10:52:57.408Z,1224
2017-01-17T10:53:58.360Z,1200
2017-01-17T10:54:58.747Z,1196
2017-01-17T10:55:58.281Z,1208
2017-01-17T10:56:57.488Z,1232
2017-01-17T10:57:57.566Z,1256
2017-01-17T10:58:58.205Z,1260
2017-01-17T10:59:58.424Z,1296
2017-01-17T11:00:57.565Z,1344
2017-01-17T11:01:57.785Z,1396
2017-01-17T11:02:57.343Z,1432
2017-01-17T11:03:57.734Z,1444
2017-01-17T11:04:57.918Z,1440
2017-01-17T11:05:58.013Z,1452
2017-01-17T11:06:57.951Z,1476
2017-01-17T11:07:57.920Z,1488
2017-01-17T11:08:57.911Z,1524
2017-01-17T11:09:57.132Z,1576
2017-01-17T11:10:58.020Z,1580
2017-01-17T11:11:57.165Z,1524
2017-01-17T11:12:56.973Z,1480
2017-01-17T11:13:58.423Z,1428
2017-01-17T11:14:58.047Z,1428
2017-01-17T11:15:58.396Z,1416
2017-01-17T11:16:57.356Z,1368
2017-01-17T11:17:57.680Z,1304
2017-01-17T11:18:57.295Z,1264
2017-01-17T11:19:57.594Z,1244
2017-01-17T11:20:57.911Z,1280
2017-01-17T11:21:57.543Z,1232
2017-01-17T11:22:56.866Z,1292
2017-01-17T11:23:58.144Z,1264
2017-01-17T11:24:56.796Z,1196
2017-01-17T11:25:57.132Z,1156
2017-01-17T11:26:57.081Z,1136
2017-01-17T11:27:57.690Z,1156
2017-01-17T11:28:57.685Z,1180
2017-01-17T11:29:56.582Z,1180
2017-01-17T11:30:57.628Z,1168
2017-01-17T11:31:55.948Z,1152
2017-01-17T11:32:57.592Z,1160
2017-01-17T11:33:57.185Z,1160
2017-01-17T11:34:57.824Z,1148
2017-01-17T11:35:56.535Z,1176
2017-01-17T11:36:57.768Z,1204
2017-01-17T11:37:57.426Z,1252
2017-01-17T11:38:57.627Z,1268
2017-01-17T11:39:57.025Z,1296
2017-01-17T11:40:57.356Z,1312
2017-01-17T11:41:57.307Z,1316
2017-01-17T11:42:56.954Z,1328
2017-01-17T11:43:56.245Z,1344
2017-01-17T11:44:57.018Z,1356
2017-01-17T11:45:56.767Z,1332
2017-01-17T11:46:56.968Z,1340
2017-01-17T11:47:56.408Z,1372
2017-01-17T11:48:56.212Z,1368
2017-01-17T11:49:55.769Z,1392
2017-01-17T11:50:57.027Z,1452
2017-01-17T11:51:57.063Z,1504
2017-01-17T11:52:56.678Z,1560
2017-01-17T11:53:57.153Z,1552
2017-01-17T11:54:55.859Z,1584
2017-01-17T11:55:56.894Z,1616
2017-01-17T11:56:56.205Z,1672
2017-01-17T11:57:56.987Z,1728
2017-01-17T11:58:56.574Z,1744
2017-01-17T11:59:55.555Z,1704
2017-01-17T12:00:56.142Z,1732
2017-01-17T12:01:55.530Z,1648
2017-01-17T12:02:56.069Z,1548
2017-01-17T12:03:56.029Z,1488
2017-01-17T12:04:55.998Z,1444
2017-01-17T12:05:55.979Z,1392
2017-01-17T12:06:56.293Z,1356
2017-01-17T12:07:56.132Z,1356
2017-01-17T12:08:56.871Z,1368
2017-01-17T12:09:56.487Z,1364
2017-01-17T12:10:56.473Z,1352
2017-01-17T12:11:56.431Z,1356
2017-01-17T12:12:55.149Z,1368
2017-01-17T12:13:56.108Z,1384
2017-01-17T12:14:56.085Z,1148
2017-01-17T12:15:56.246Z,1348
2017-01-17T12:16:56.091Z,1292
2017-01-17T12:17:56.035Z,1168
2017-01-17T12:18:55.644Z,1312
2017-01-17T12:19:55.833Z,972
2017-01-17T12:20:55.227Z,1092
2017-01-17T12:21:56.530Z,812
2017-01-17T12:22:55.754Z,1076
2017-01-17T12:23:55.460Z,1220
2017-01-17T12:24:56.302Z,1268
2017-01-17T12:25:56.474Z,1048
2017-01-17T12:26:56.376Z,1332
2017-01-17T12:27:55.689Z,1036
2017-01-17T12:28:55.494Z,980
2017-01-17T12:29:55.256Z,788
2017-01-17T12:30:54.870Z,784
2017-01-17T12:31:54.883Z,756
2017-01-17T12:32:55.856Z,752
2017-01-17T12:33:55.473Z,784
2017-01-17T12:34:56.143Z,644
2017-01-17T12:35:55.214Z,732
2017-01-17T12:36:55.003Z,1048
2017-01-17T12:37:54.081Z,1028
2017-01-17T12:38:55.242Z,1112
2017-01-17T12:39:55.007Z,792
2017-01-17T12:40:55.286Z,1192
2017-01-17T12:41:55.289Z,1276
2017-01-17T12:42:54.191Z,1384
2017-01-17T12:43:55.444Z,1372
2017-01-17T12:44:54.778Z,1368
2017-01-17T12:45:55.720Z,1368
2017-01-17T12:46:55.143Z,1376
2017-01-17T12:47:54.378Z,1368
2017-01-17T12:48:54.756Z,1356
2017-01-17T12:49:54.754Z,1360
2017-01-17T12:50:55.552Z,1372
2017-01-17T12:51:55.678Z,1352
2017-01-17T12:52:54.657Z,1312
2017-01-17T12:53:54.223Z,1308
2017-01-17T12:54:53.924Z,1312
2017-01-17T12:55:54.906Z,1272
2017-01-17T12:56:55.512Z,1212
2017-01-17T12:57:55.168Z,1168
2017-01-17T12:58:55.310Z,1148
2017-01-17T12:59:55.295Z,1148
2017-01-17T13:00:54.335Z,1160
2017-01-17T13:01:54.904Z,1164
2017-01-17T13:02:54.974Z,1188
2017-01-17T13:03:55.003Z,1152
2017-01-17T13:04:54.294Z,1104
2017-01-17T13:05:54.935Z,1088
2017-01-17T13:06:54.889Z,1092
2017-01-17T13:07:53.143Z,1120
2017-01-17T13:08:54.111Z,1148
2017-01-17T13:09:54.202Z,1172
2017-01-17T13:10:54.519Z,1224
2017-01-17T13:11:54.518Z,1280
2017-01-17T13:12:54.106Z,1320
2017-01-17T13:13:54.034Z,1300
2017-01-17T13:14:54.416Z,1276
2017-01-17T13:15:54.015Z,1236
2017-01-17T13:16:53.564Z,1188
2017-01-17T13:17:54.615Z,1136
2017-01-17T13:18:54.604Z,1112
2017-01-17T13:19:53.781Z,1092
2017-01-17T13:20:54.178Z,1088
2017-01-17T13:21:54.644Z,1080
2017-01-17T13:22:54.141Z,1088
2017-01-17T13:23:53.449Z,1108
2017-01-17T13:24:53.533Z,1140
2017-01-17T13:25:54.557Z,1160
2017-01-17T13:26:53.308Z,1168
2017-01-17T13:27:53.906Z,1168
2017-01-17T13:28:54.320Z,1164
2017-01-17T13:29:54.105Z,1160
2017-01-17T13:30:54.284Z,1168
2017-01-17T13:31:53.153Z,1216
2017-01-17T13:32:53.199Z,1272
2017-01-17T13:33:54.210Z,1352
2017-01-17T13:34:52.883Z,1380
2017-01-17T13:35:53.635Z,1384
2017-01-17T13:36:54.446Z,1372
2017-01-17T13:37:52.968Z,1360
2017-01-17T13:38:53.358Z,1368
2017-01-17T13:39:52.949Z,1340
2017-01-17T13:40:52.847Z,1344
2017-01-17T13:41:54.226Z,1340
2017-01-17T13:42:54.081Z,1316
2017-01-17T13:43:53.096Z,1324
2017-01-17T13:44:54.257Z,1312
2017-01-17T13:45:53.480Z,1260
2017-01-17T13:46:54.095Z,1216
2017-01-17T13:47:53.141Z,1196
2017-01-17T13:48:52.984Z,1184
2017-01-17T13:49:53.341Z,1192
2017-01-17T13:50:52.721Z,1168
2017-01-17T13:51:53.572Z,1112
2017-01-17T13:52:53.022Z,1116
2017-01-17T13:53:51.869Z,1172
2017-01-17T13:54:53.237Z,1160
2017-01-17T13:55:53.206Z,1116
2017-01-17T13:56:53.453Z,1064
2017-01-17T13:57:53.316Z,1020
2017-01-17T13:58:53.185Z,1024
2017-01-17T13:59:53.415Z,1016
2017-01-17T14:00:53.325Z,988
2017-01-17T14:01:52.356Z,976
2017-01-17T14:02:52.965Z,980
2017-01-17T14:03:53.604Z,972
2017-01-17T14:04:53.635Z,984
2017-01-17T14:05:52.880Z,996
2017-01-17T14:06:52.862Z,968